Skip Navigation Links
NOAA logo - Click to go to the NOAA homepage
NOAA's National Weather Service
Alaska Aviation Weather Unit
  NWS logo - Click to go to the NWS homepage
Left Navbar Graphic     08 AKDT = 16 GMT

   
NOAA is celebrating 200 years of science, service, and stewardship. Visit the NOAA 200th celebration Web site to learn more.
USA.gov is the U.S. Government's official Web portal to all Federal, state and local government Web resources and services.
Facebook
NWS on Facebook

Important Change Regarding the AAWU Web Presence

 

Over the last several months, the AAWU has been working to navigate its webpages to a nationally supported server. Security, as well as other needs, have necessitated the change.  In the process, we have made an effort to enhance the functionality of our website, as well as some of our products. As of June 20, 2017, aawu.arh.noaa.gov will be discontinued. The new AAWU web address is weather.gov/aawu. It is now live and will run in-parallel with the old site until it is discontinued. Please send any feedback or questions regarding the new webpages to nws.ar.aawu.webauthors@noaa.gov.  Thank you for your patience during this time of transition.
AAWU Home :: Display TAF Add Bookmark
TAF PAGA 231127Z 2312/2412 20007KT P6SM VCSH SCT040 SCT045
     FM241000 12010KT 6SM -SHRA OVC050=

SPECI PAGA 231007Z AUTO 22004KT 10SM FEW023 BKN027 BKN055 08/04 A2979 RMK AO2 PNO $= SPECI PAGA 231015Z AUTO 21005KT 10SM FEW023 BKN030 08/04 A2979 RMK AO2 PNO $= PAGA 231023Z AUTO 21006KT 10SM BKN028 08/04 A2979 RMK AO2 PNO $= SPECI PAGA 231031Z AUTO 22005KT 10SM SCT027 BKN034 08/04 A2979 RMK AO2 PNO $= METAR PAGA 231057Z AUTO 20007KT 10SM SCT038 SCT047 08/04 A2980= PAGA 231152Z AUTO 20003KT 10SM BKN025 BKN049 08/04 A2981= METAR PAGA 231157Z AUTO 19003KT 10SM BKN025 BKN049 08/04 A2981= METAR PAGA 231257Z AUTO 22008KT 10SM BKN021 BKN028 OVC044 07/04 A2982= SPECI PAGA 231303Z AUTO 21009KT 10SM SCT021 OVC046 07/04 A2982 RMK AO2 PNO $= METAR PAGA 231357Z AUTO 21009KT 10SM BKN060 BKN075 OVC090 07/03 A2983= METAR PAGA 231457Z AUTO 20004KT 10SM SCT037 OVC070 07/03 A2985= SPECI PAGA 231512Z AUTO 19003KT 10SM BKN025 BKN037 OVC080 07/03 A2985 RMK AO2 PNO $= METAR PAGA 231557Z AUTO 22007KT 10SM BKN023 BKN033 OVC085 07/03 A2986= PAGA 231604Z AUTO 23010KT 10SM SCT025 BKN034 OVC085 07/03 A2986 RMK AO2 PNO $= SPECI PAGA 231614Z AUTO 21008KT 10SM BKN027 BKN032 OVC085 07/03 A2986 RMK AO2 PNO $=
 Alaska TAF Map

NOAA's National Weather Service
Alaska Aviation Weather Unit
6930 Sand Lake Road
Anchorage, AK 99502-1845
Disclaimer
Credits
Glossary
Privacy Policy
About Us
Career Opportunities
Contact AAWU Internet Services Site last modified: April, 17th 2012